Subscribe: coolwx.com/extreme
http://coolwx.com/extreme/rss.xml
Added By: Feedage Forager Feedage Grade B rated
Language: English
Tags:
hours °c  hours  jun metar  maximum temperature  maximum  metar  past hours  past  reported airport  rmk  sct  temperature  °c °f  °c  °f 
Rate this Feed
Rate this feedRate this feedRate this feedRate this feedRate this feed
Rate this feed 1 starRate this feed 2 starRate this feed 3 starRate this feed 4 starRate this feed 5 star

Comments (0)

Feed Details and Statistics Feed Statistics
Preview: coolwx.com/extreme

coolwx.com/extreme



The recent global weather extremes



 



Last Reported Airport Tornado/Funnel Cloud/Waterspout
Ormond Beach, FL, United States: 1327Z 22 Sep 2017
METAR: KOMN 221327Z 36007KT 10SM VCSH SCT020 BKN042 26/23 A2997 RMK WATERSPOUT E27



Last Reported Airport Hail:
Pula Aerodrome, Croatia: 0900Z 24 Sep 2017
METAR: LDPL 240900Z 02007KT 8000 TSRA FEW007 SCT012 SCT020CB 17/16 Q1018 RETSGR



Maximum Temperature since March 2007:
54°C (129.2°F): Ahwaz,Iran: 1230Z 29 Jun 2017
METAR: OIAW 291230Z 23002KT CAVOK 54/22 Q0993



Maximum Temperature past 3 Hours:
44°C (111.2°F): Basrah,Iraq
METAR: ORMM 251200Z 32008KT CAVOK 44/03 Q1006 NOSIG



Minimum Temperature since March 2007:
-78°C (-108.4°F): Amundsen-Scott Stn,Antarctica: 1750Z 07 Jun 2013
METAR: NZSP 031150Z 14011KT 9999 SKC M78/ A2819 RMK CLN AIR 14007KT ALL WNDS GRID



Minimum Temperature past 3 Hours:
-40°C (-40.0°F): High Island 376, TX,United States
METAR: KHQI 251155Z AUTO 10SM CLR M40/ A2985 RMK A01



Maximum Dewpoint past 3 Hours:
29°C (84.2°F): North Lakhimpur,India
METAR: VELR 251200Z 25005KT 3000 -DZ SCT018 FEW025CB BKN090 30/29 Q1003



Maximum Wind past 3 Hours:
49kt (25m/s): Sleipner A Platform,Norway